Time;durP1;ratioP1;P1;durP2;ratioP2;P2;SDS_P1;SDS_P2;PMS_P1;PMS_P2;Temp;Humidity;BMP_temperature;BMP_pressure;BME280_temperature;BME280_humidity;BME280_pressure;Samples;Min_cycle;Max_cycle;Signal;HPM_P1;HPM_P2
2021/12/16 00:08:43;;;;;;;29.70;17.30;;;;;;;11.33;63.14;101166.34;2554397;77;25156;-79
2021/12/16 00:33:44;;;;;;;29.12;17.75;;;;;;;11.31;63.16;101149.77;2543729;77;25784;-79
2021/12/16 00:37:04;;;;;;;30.35;16.65;;;;;;;11.30;63.18;101150.58;2541035;77;25641;-83
2021/12/16 00:40:24;;;;;;;26.85;15.98;;;;;;;11.30;63.18;101150.58;2513392;77;25639;-77
2021/12/16 00:43:53;;;;;;;33.45;17.15;;;;;;;11.31;63.16;101152.80;2541729;77;30748;-76
2021/12/16 00:47:35;;;;;;;27.95;16.73;;;;;;;11.31;63.19;101154.98;2540197;77;25626;-80
2021/12/16 00:54:18;;;;;;;33.18;18.57;;;;;;;11.31;63.18;101138.02;2541090;77;25633;-81
2021/12/16 00:57:41;;;;;;;35.00;16.73;;;;;;;11.31;63.23;101135.41;2541483;77;30786;-79
2021/12/16 01:01:25;;;;;;;26.82;17.90;;;;;;;11.31;63.17;101128.88;2513160;77;25723;-78
2021/12/16 01:34:04;;;;;;;30.02;16.40;;;;;;;11.32;63.30;101111.06;2436375;81;25817;-82
2021/12/16 01:55:28;;;;;;;28.92;17.52;;;;;;;11.32;63.29;101096.70;2359157;83;25692;-80
2021/12/16 01:58:44;;;;;;;29.07;17.80;;;;;;;11.33;63.30;101087.15;2367279;82;25624;-78
2021/12/16 02:02:35;;;;;;;26.30;16.07;;;;;;;11.33;63.27;101097.17;2366726;82;25770;-78
2021/12/16 02:09:13;;;;;;;33.02;17.20;;;;;;;11.34;63.26;101105.48;2367215;83;25781;-83
2021/12/16 02:27:34;;;;;;;27.50;16.82;;;;;;;11.35;63.26;101120.30;2541370;77;25548;-81
2021/12/16 02:37:49;;;;;;;26.68;17.65;;;;;;;11.34;63.32;101111.13;2548729;77;25697;-79
2021/12/16 02:41:10;;;;;;;29.90;17.62;;;;;;;11.35;63.35;101122.03;2548697;77;25637;-77
2021/12/16 02:44:39;;;;;;;31.00;17.75;;;;;;;11.35;63.33;101124.64;2548627;77;26322;-77
2021/12/16 02:51:34;;;;;;;;;;;;;;;11.35;63.32;101119.42;2551480;77;25624;-77
2021/12/16 02:54:56;;;;;;;27.58;17.48;;;;;;;11.38;63.33;101110.81;2548926;77;30114;-81
2021/12/16 02:58:17;;;;;;;30.15;18.37;;;;;;;11.36;63.30;101117.27;2548901;77;25550;-81
2021/12/16 03:01:47;;;;;;;25.50;15.98;;;;;;;11.36;63.31;101113.36;2548608;77;31293;-81
2021/12/16 03:05:11;;;;;;;21.97;15.20;;;;;;;11.36;63.26;101110.75;2548375;77;25570;-78
2021/12/16 03:08:33;;;;;;;27.58;16.75;;;;;;;11.37;63.33;101109.89;2548760;77;25110;-79
2021/12/16 03:33:50;;;;;;;24.45;15.85;;;;;;;11.39;63.34;101123.90;2540588;77;25225;-80
2021/12/16 03:37:15;;;;;;;27.42;16.77;;;;;;;11.39;63.31;101117.38;2528515;78;25654;-77
2021/12/16 03:40:42;;;;;;;30.43;18.98;;;;;;;11.39;63.29;101121.29;2550542;77;25668;-77
2021/12/16 03:44:13;;;;;;;25.12;15.60;;;;;;;11.40;63.36;101114.34;2550614;77;25560;-78
2021/12/16 03:47:47;;;;;;;27.45;17.70;;;;;;;11.40;63.35;101113.03;2550510;77;25741;-77
2021/12/16 03:51:14;;;;;;;27.30;17.40;;;;;;;11.38;63.31;101107.78;2550061;77;25666;-77
2021/12/16 03:54:41;;;;;;;23.62;15.93;;;;;;;11.40;63.32;101113.03;2548390;77;25646;-80
2021/12/16 03:58:03;;;;;;;24.77;15.65;;;;;;;11.39;63.36;101106.05;2550432;77;25627;-80
2021/12/16 04:01:28;;;;;;;25.55;16.60;;;;;;;11.40;63.35;101106.08;2550094;77;25637;-78
2021/12/16 04:04:51;;;;;;;24.67;15.78;;;;;;;11.41;63.37;101105.69;2550387;77;25662;-79
2021/12/16 04:08:14;;;;;;;27.50;16.85;;;;;;;11.40;63.39;101103.47;2550225;77;25643;-79
2021/12/16 04:11:47;;;;;;;21.40;15.75;;;;;;;11.41;63.29;101094.82;2549721;77;25613;-79
2021/12/16 04:15:12;;;;;;;24.20;16.42;;;;;;;11.40;63.33;101090.84;2550422;77;25851;-81
2021/12/16 04:18:35;;;;;;;24.00;15.70;;;;;;;11.41;63.35;101096.55;2549296;77;25544;-78
2021/12/16 04:22:02;;;;;;;33.80;17.77;;;;;;;11.42;63.30;101090.06;2550149;77;25629;-82
2021/12/16 04:25:35;;;;;;;25.35;16.82;;;;;;;11.43;63.26;101092.25;2550164;77;25627;-79
2021/12/16 04:29:03;;;;;;;24.77;16.95;;;;;;;11.43;63.25;101092.25;2550672;77;26418;-79
2021/12/16 04:32:23;;;;;;;28.57;16.87;;;;;;;11.43;63.23;101084.41;2549695;77;25815;-78
2021/12/16 04:35:46;;;;;;;21.93;14.75;;;;;;;11.44;63.22;101090.09;2541201;77;26502;-78
2021/12/16 04:39:12;;;;;;;24.75;16.45;;;;;;;11.43;63.19;101080.50;2541176;77;25580;-80
2021/12/16 04:42:35;;;;;;;25.02;16.17;;;;;;;11.44;63.21;101077.95;2541511;77;25608;-82
2021/12/16 04:45:56;;;;;;;21.95;15.40;;;;;;;11.43;63.22;101067.02;2513772;77;25761;-83
2021/12/16 04:49:19;;;;;;;22.20;15.55;;;;;;;11.44;63.21;101074.42;2541120;77;25604;-79
2021/12/16 04:52:41;;;;;;;23.67;15.72;;;;;;;11.43;63.27;101077.46;2540943;77;25166;-79
2021/12/16 04:56:06;;;;;;;22.17;15.38;;;;;;;11.43;63.32;101063.10;2540912;77;26180;-78
2021/12/16 04:59:31;;;;;;;22.48;15.70;;;;;;;11.43;63.21;101066.14;2540340;77;25618;-79
2021/12/16 05:02:55;;;;;;;21.68;15.58;;;;;;;11.43;63.25;101067.44;2540776;77;25607;-77
2021/12/16 05:06:20;;;;;;;25.55;16.23;;;;;;;11.44;63.35;101066.59;2540046;77;25622;-78
2021/12/16 05:13:19;;;;;;;24.85;15.78;;;;;;;11.44;63.35;101061.37;2541169;77;25596;-78
2021/12/16 05:16:40;;;;;;;21.90;15.55;;;;;;;11.44;63.27;101059.67;2541427;77;25586;-82
2021/12/16 05:20:07;;;;;;;22.35;16.35;;;;;;;11.44;63.33;101071.42;2541155;77;25627;-79
2021/12/16 05:27:09;;;;;;;24.35;16.57;;;;;;;11.45;63.40;101074.91;2513192;77;26106;-78
2021/12/16 05:30:36;;;;;;;21.97;15.10;;;;;;;11.45;63.38;101077.53;2541479;77;25840;-77
2021/12/16 05:33:59;;;;;;;20.85;14.63;;;;;;;11.45;63.32;101077.53;2541021;77;25641;-77
2021/12/16 05:37:20;;;;;;;23.57;15.40;;;;;;;11.46;63.34;101078.86;2541105;77;25586;-77
2021/12/16 05:40:43;;;;;;;21.65;16.32;;;;;;;11.45;63.28;101071.88;2540751;77;25619;-78
2021/12/16 05:44:06;;;;;;;18.98;15.38;;;;;;;11.48;63.26;101078.51;2539306;77;25532;-78
2021/12/16 05:47:28;;;;;;;21.97;15.88;;;;;;;11.47;63.31;101071.91;2541393;77;25672;-78
2021/12/16 05:50:54;;;;;;;18.87;14.33;;;;;;;11.47;63.28;101068.88;2541310;77;31182;-79
2021/12/16 05:54:18;;;;;;;19.02;14.30;;;;;;;11.48;63.28;101069.37;2541004;77;25615;-79
2021/12/16 05:57:42;;;;;;;18.48;14.28;;;;;;;11.48;63.27;101063.27;2540140;77;25656;-79
2021/12/16 06:01:10;;;;;;;21.23;15.30;;;;;;;11.47;63.23;101062.77;2540698;77;25594;-79
2021/12/16 06:04:33;;;;;;;18.75;14.10;;;;;;;11.48;63.26;101064.14;2540753;77;25642;-79
2021/12/16 06:07:57;;;;;;;20.37;14.65;;;;;;;11.48;63.31;101072.41;2540375;77;25604;-78
2021/12/16 06:11:23;;;;;;;19.30;15.13;;;;;;;11.47;63.29;101062.34;2541190;77;25789;-78
2021/12/16 06:29:16;;;;;;;21.07;14.83;;;;;;;11.47;63.42;101078.44;2541150;77;25615;-78
2021/12/16 06:32:38;;;;;;;19.07;14.47;;;;;;;11.47;63.41;101076.71;2540991;77;25655;-79
2021/12/16 06:35:59;;;;;;;20.05;15.20;;;;;;;11.47;63.35;101084.55;2557882;76;25606;-78
2021/12/16 06:39:20;;;;;;;19.07;14.47;;;;;;;11.47;63.37;101082.36;2562238;77;25554;-80
2021/12/16 06:42:43;;;;;;;20.05;15.00;;;;;;;11.48;63.41;101081.55;2557391;77;25594;-81
2021/12/16 06:46:09;;;;;;;18.20;14.50;;;;;;;11.46;63.39;101085.39;2562573;77;25520;-78
2021/12/16 06:49:29;;;;;;;18.87;14.58;;;;;;;11.48;63.35;101093.30;2561778;77;25575;-78
2021/12/16 06:52:51;;;;;;;17.65;13.75;;;;;;;11.48;63.39;101091.98;2562284;76;25579;-79
2021/12/16 06:56:21;;;;;;;16.65;14.63;;;;;;;11.48;63.37;101096.78;2566502;77;25868;-77
2021/12/16 06:59:40;;;;;;;17.95;14.58;;;;;;;11.48;63.32;101098.09;2511768;78;25600;-79
2021/12/16 07:03:02;;;;;;;18.27;14.20;;;;;;;11.49;63.32;101090.72;2557967;77;25626;-78
2021/12/16 07:06:26;;;;;;;17.70;14.73;;;;;;;11.49;63.35;101093.33;2533007;77;25611;-78
2021/12/16 07:09:47;;;;;;;19.82;14.53;;;;;;;11.50;63.37;101094.20;2509982;78;25606;-79
2021/12/16 07:13:29;;;;;;;18.12;15.08;;;;;;;11.51;63.35;101093.39;2510591;78;31346;-79
2021/12/16 07:16:35;;;;;;;16.95;14.23;;;;;;;11.51;63.38;101089.05;2505013;78;25596;-83
2021/12/16 07:19:57;;;;;;;16.45;14.73;;;;;;;11.50;63.32;101082.03;2510314;78;30924;-77
2021/12/16 07:23:18;;;;;;;16.17;14.00;;;;;;;11.52;63.38;101078.18;2543283;77;25788;-80
2021/12/16 07:26:40;;;;;;;18.70;15.10;;;;;;;11.52;63.30;101066.00;2556221;77;25645;-80
2021/12/16 07:31:52;;;;;;;18.90;14.07;;;;;;;11.58;63.25;101064.89;2543438;77;30788;-79
2021/12/16 07:35:18;;;;;;;17.98;14.63;;;;;;;11.55;63.23;101060.00;2512617;78;25709;-79
2021/12/16 07:38:39;;;;;;;17.12;13.48;;;;;;;11.56;63.25;101063.06;2513017;78;25590;-78
2021/12/16 07:42:00;;;;;;;15.72;13.72;;;;;;;11.58;63.32;101064.01;2513310;78;30864;-78
2021/12/16 07:45:21;;;;;;;16.17;12.98;;;;;;;11.59;63.29;101060.55;2513206;78;30623;-81
2021/12/16 07:48:42;;;;;;;15.70;13.78;;;;;;;11.60;63.27;101068.84;2513227;78;30886;-77
2021/12/16 07:52:06;;;;;;;14.70;13.15;;;;;;;11.63;63.07;101058.91;2486305;78;30227;-77
2021/12/16 07:55:29;;;;;;;16.27;13.20;;;;;;;11.63;63.07;101058.91;2467943;80;25191;-85
2021/12/16 07:58:50;;;;;;;15.78;14.18;;;;;;;11.63;63.21;101049.77;2468161;79;25686;-85
2021/12/16 08:02:13;;;;;;;15.72;13.72;;;;;;;11.64;63.24;101054.14;2471070;78;25682;-79
2021/12/16 08:05:40;;;;;;;16.75;13.25;;;;;;;11.63;63.23;101068.94;2478898;78;25707;-82
2021/12/16 08:09:06;;;;;;;16.62;13.15;;;;;;;11.64;63.23;101069.82;2477045;78;25717;-80
2021/12/16 08:12:30;;;;;;;16.05;13.58;;;;;;;11.66;63.24;101066.84;2472484;78;26289;-80
2021/12/16 08:15:54;;;;;;;16.52;13.05;;;;;;;11.66;63.27;101078.59;2472733;78;25658;-79
2021/12/16 08:19:15;;;;;;;12.58;11.35;;;;;;;11.67;63.30;101077.75;2516627;78;30799;-86
2021/12/16 08:22:37;;;;;;;15.70;13.43;;;;;;;11.66;63.09;101075.98;2469513;78;25767;-85
2021/12/16 08:25:59;;;;;;;16.07;12.90;;;;;;;11.67;63.32;101074.71;2468184;80;25647;-82
2021/12/16 08:29:21;;;;;;;16.73;14.23;;;;;;;11.67;63.32;101068.19;2466164;80;25617;-79
2021/12/16 08:32:43;;;;;;;16.62;12.80;;;;;;;11.68;63.28;101071.28;2455645;80;25694;-82
2021/12/16 08:36:05;;;;;;;14.85;12.85;;;;;;;11.69;63.22;101078.27;2457190;80;25680;-79
2021/12/16 08:39:27;;;;;;;17.75;14.33;;;;;;;11.70;63.28;101074.80;2456338;80;25762;-87
2021/12/16 08:42:49;;;;;;;18.02;13.75;;;;;;;11.71;63.21;101084.83;2455616;79;25643;-80
2021/12/16 08:46:14;;;;;;;15.55;12.60;;;;;;;11.71;63.23;101083.13;2455747;80;25651;-80
2021/12/16 08:49:36;;;;;;;16.07;13.22;;;;;;;11.73;63.27;101091.88;2455535;80;25604;-81
2021/12/16 08:53:00;;;;;;;19.95;14.13;;;;;;;11.72;63.23;101101.87;2455844;80;25791;-85
2021/12/16 08:56:22;;;;;;;21.60;14.33;;;;;;;11.73;63.24;101102.33;2455004;80;25658;-82
2021/12/16 08:59:44;;;;;;;16.97;12.10;;;;;;;11.74;63.24;101101.48;2455543;80;25924;-86
2021/12/16 09:03:09;;;;;;;15.13;13.25;;;;;;;11.75;63.21;101094.56;2455949;80;25697;-81
2021/12/16 09:06:38;;;;;;;14.65;12.68;;;;;;;11.75;63.33;101088.91;2455818;80;26042;-82
2021/12/16 09:09:59;;;;;;;;;;;;;;;11.76;63.30;101089.36;2457345;80;25646;-81
2021/12/16 09:13:20;;;;;;;12.82;11.63;;;;;;;11.78;63.30;101092.04;2455788;79;30878;-81
2021/12/16 09:16:41;;;;;;;14.07;12.47;;;;;;;11.76;63.27;101075.00;2455711;80;31016;-80
2021/12/16 09:20:08;;;;;;;16.07;12.82;;;;;;;11.77;63.24;101070.23;2457460;79;25191;-82
2021/12/16 09:23:31;;;;;;;14.60;12.28;;;;;;;11.79;63.25;101072.91;2397682;81;25696;-82
2021/12/16 09:26:52;;;;;;;17.07;12.82;;;;;;;11.82;63.26;101070.38;2439908;79;26397;-86
2021/12/16 09:30:26;;;;;;;13.48;11.88;;;;;;;11.82;63.28;101072.57;2451416;78;30948;-83
2021/12/16 09:33:54;;;;;;;15.28;11.90;;;;;;;11.84;63.30;101067.41;2359404;83;25957;-79
2021/12/16 09:37:15;;;;;;;13.58;11.93;;;;;;;11.86;63.32;101071.39;2359417;83;25680;-78
2021/12/16 09:40:50;;;;;;;12.28;11.05;;;;;;;11.88;63.29;101077.53;2362884;82;25716;-84
2021/12/16 09:44:10;;;;;;;13.98;11.70;;;;;;;11.88;63.32;101072.30;2405893;82;25793;-79
2021/12/16 09:47:31;;;;;;;13.10;11.63;;;;;;;11.89;63.32;101077.59;2407733;82;30870;-82
2021/12/16 09:50:55;;;;;;;13.00;11.70;;;;;;;11.90;63.35;101077.17;2352155;82;26554;-85
2021/12/16 09:54:23;;;;;;;12.18;10.88;;;;;;;11.90;63.35;101074.55;2362387;82;25601;-84
2021/12/16 09:57:44;;;;;;;13.38;11.48;;;;;;;11.93;63.37;101083.80;2405780;82;25667;-84
2021/12/16 10:01:10;;;;;;;12.55;11.10;;;;;;;11.94;63.39;101080.33;2406021;82;25889;-77
2021/12/16 10:04:33;;;;;;;13.43;11.05;;;;;;;11.94;63.40;101093.39;2407960;82;25198;-75
2021/12/16 10:07:54;;;;;;;11.08;10.08;;;;;;;11.95;63.41;101087.34;2408265;81;25746;-75
2021/12/16 10:11:16;;;;;;;10.63;9.60;;;;;;;11.96;63.43;101080.84;2408427;82;31422;-75
2021/12/16 10:18:21;;;;;;;11.12;10.03;;;;;;;11.98;63.45;101071.73;2408187;81;25812;-75
2021/12/16 10:21:43;;;;;;;11.20;10.08;;;;;;;11.99;63.48;101076.14;2408208;82;26001;-82
2021/12/16 10:25:29;;;;;;;9.18;8.30;;;;;;;12.00;63.49;101060.48;2458371;80;25692;-81
2021/12/16 10:28:56;;;;;;;10.93;7.50;;;;;;;12.02;63.48;101056.63;2463228;80;25724;-81
2021/12/16 10:32:43;;;;;;;6.72;5.95;;;;;;;12.11;65.81;101055.55;2462970;78;25899;-80
2021/12/16 10:36:17;;;;;;;6.97;6.28;;;;;;;12.74;66.87;101049.41;2462759;80;25746;-85
2021/12/16 10:39:38;;;;;;;7.40;6.62;;;;;;;13.28;66.01;101041.16;2463479;80;25612;-74
2021/12/16 10:43:07;;;;;;;7.28;6.17;;;;;;;13.33;65.44;101039.94;2463249;80;31368;-76
2021/12/16 10:46:32;;;;;;;7.83;6.40;;;;;;;13.26;65.26;101049.38;2463588;80;25687;-75
2021/12/16 10:49:53;;;;;;;10.75;6.60;;;;;;;13.16;65.16;101048.28;2463321;80;25533;-80
2021/12/16 10:53:14;;;;;;;8.75;6.30;;;;;;;13.10;65.08;101049.44;2463980;80;31295;-83
2021/12/16 10:56:41;;;;;;;7.65;4.78;;;;;;;13.03;65.00;101047.52;2463273;80;25635;-82
2021/12/16 11:00:13;;;;;;;6.92;5.97;;;;;;;13.10;65.92;101059.03;2463149;80;25651;-74
2021/12/16 11:03:43;;;;;;;8.43;5.90;;;;;;;13.22;65.38;101052.32;2463892;80;25601;-80
2021/12/16 11:07:09;;;;;;;6.12;5.53;;;;;;;13.17;65.14;101052.66;2461019;79;25609;-79
2021/12/16 11:10:35;;;;;;;6.92;5.97;;;;;;;13.11;65.06;101042.03;2444641;78;25689;-86
2021/12/16 11:14:07;;;;;;;5.35;4.78;;;;;;;13.06;65.00;101046.30;2418297;81;25817;-84
2021/12/16 11:17:42;;;;;;;5.40;4.90;;;;;;;13.13;66.27;101042.97;2413909;81;25704;-74
2021/12/16 11:21:09;;;;;;;6.40;5.80;;;;;;;13.58;65.85;101040.08;2413869;81;25727;-80
2021/12/16 11:24:30;;;;;;;6.05;5.50;;;;;;;13.61;65.23;101039.72;2413479;80;25653;-75
2021/12/16 11:27:57;;;;;;;6.20;5.37;;;;;;;13.42;65.20;101009.60;2490201;78;30846;-81
2021/12/16 11:31:23;;;;;;;6.37;5.78;;;;;;;13.43;64.98;101028.42;2469836;78;25712;-78
2021/12/16 11:34:44;;;;;;;6.17;5.15;;;;;;;13.33;64.92;101030.77;2433293;79;26382;-79
2021/12/16 11:38:17;;;;;;;5.67;5.17;;;;;;;13.27;64.87;101036.77;2430641;79;25596;-83
2021/12/16 11:41:49;;;;;;;6.85;5.67;;;;;;;13.22;64.87;101035.30;2363238;82;25685;-84
2021/12/16 11:45:10;;;;;;;5.28;4.85;;;;;;;13.20;64.83;101036.14;2363711;82;25844;-82
2021/12/16 11:48:36;;;;;;;5.37;4.87;;;;;;;13.21;64.82;101039.20;2363939;83;30791;-83
2021/12/16 11:52:26;;;;;;;5.42;4.92;;;;;;;13.21;64.73;101033.97;2363876;82;25839;-77
2021/12/16 11:55:49;;;;;;;6.58;5.08;;;;;;;13.22;64.69;101023.52;2363727;83;25748;-78
2021/12/16 11:59:14;;;;;;;4.75;4.35;;;;;;;13.28;64.61;101028.06;2340410;80;25838;-82
2021/12/16 12:02:39;;;;;;;4.65;4.10;;;;;;;13.30;65.13;101026.80;2337423;84;25974;-82
2021/12/16 12:06:03;;;;;;;9.08;5.10;;;;;;;13.78;65.65;101030.91;2311916;84;25982;-83
2021/12/16 12:09:38;;;;;;;5.20;3.77;;;;;;;14.27;65.19;101030.55;2300160;86;25738;-86
2021/12/16 12:13:06;;;;;;;5.37;3.67;;;;;;;14.66;64.62;101024.73;2299939;86;25779;-79
2021/12/16 12:16:35;;;;;;;14.28;5.17;;;;;;;15.29;63.81;101042.39;2305003;84;25829;-83
2021/12/16 12:19:58;;;;;;;7.80;4.12;;;;;;;15.29;63.81;101042.39;2424222;81;25681;-89
2021/12/16 12:23:18;;;;;;;13.10;3.95;;;;;;;15.47;62.97;101021.62;2431026;81;30780;-84
2021/12/16 12:26:54;;;;;;;13.85;4.08;;;;;;;15.70;62.45;101030.29;2430206;81;30832;-82
2021/12/16 12:30:17;;;;;;;4.87;2.80;;;;;;;15.87;62.03;101034.45;2431222;80;25675;-79
2021/12/16 12:33:38;;;;;;;6.80;3.50;;;;;;;16.07;61.47;101049.16;2416036;81;25627;-81
2021/12/16 12:37:07;;;;;;;4.22;3.10;;;;;;;15.93;60.94;101046.33;2377666;82;30763;-79
2021/12/16 12:40:36;;;;;;;;;;;;;;;15.67;60.87;101046.89;2379757;83;25681;-76
2021/12/16 12:43:58;;;;;;;8.97;3.70;;;;;;;15.44;60.88;101035.15;2377443;82;26424;-81
2021/12/16 12:47:27;;;;;;;6.35;4.08;;;;;;;15.25;60.97;101041.43;2376945;83;25629;-77
2021/12/16 12:50:51;;;;;;;3.20;2.83;;;;;;;15.07;61.05;101031.97;2377239;82;25544;-79
2021/12/16 12:54:28;;;;;;;7.40;3.35;;;;;;;14.90;61.14;101012.02;2377173;82;25659;-76
2021/12/16 12:57:50;;;;;;;5.00;3.20;;;;;;;14.76;61.22;101014.84;2377199;83;25591;-76
2021/12/16 13:01:11;;;;;;;11.03;3.30;;;;;;;14.61;61.35;101014.14;2376240;82;25700;-77
2021/12/16 13:04:46;;;;;;;3.60;2.70;;;;;;;14.48;61.82;101007.79;2377425;82;30901;-75
2021/12/16 13:08:11;;;;;;;3.75;3.42;;;;;;;14.37;61.55;101029.86;2375901;83;25817;-77
2021/12/16 13:11:32;;;;;;;2.98;2.55;;;;;;;14.19;61.68;101034.78;2377240;82;26281;-77
2021/12/16 13:15:03;;;;;;;6.10;3.27;;;;;;;14.19;61.68;101034.78;2377219;82;30870;-76
2021/12/16 13:26:36;;;;;;;4.05;3.05;;;;;;;13.97;61.97;101037.39;2377155;83;25601;-77
2021/12/16 13:33:44;;;;;;;2.52;2.20;;;;;;;13.85;62.10;101024.05;2406994;81;25662;-79
2021/12/16 13:37:22;;;;;;;2.50;2.20;;;;;;;13.79;62.17;101033.09;2407978;82;25597;-75
2021/12/16 13:40:42;;;;;;;2.92;2.20;;;;;;;13.73;62.18;101033.84;2408108;81;25638;-76
2021/12/16 13:44:15;;;;;;;4.17;2.37;;;;;;;13.67;62.22;101037.23;2408777;82;25644;-76
2021/12/16 13:47:52;;;;;;;5.70;3.25;;;;;;;13.62;62.24;101031.42;2408348;82;25673;-75
2021/12/16 13:59:31;;;;;;;2.35;2.10;;;;;;;13.49;62.40;101022.84;2408189;82;25730;-77
2021/12/16 14:06:11;;;;;;;2.35;1.65;;;;;;;13.39;62.50;101023.94;2408470;82;25733;-81
2021/12/16 14:09:28;;;;;;;2.60;1.70;;;;;;;13.36;62.56;101034.34;2403337;82;25623;-78
2021/12/16 14:17:14;;;;;;;1.80;1.60;;;;;;;13.28;62.01;101013.66;2407955;82;25670;-78
2021/12/16 14:35:55;;;;;;;2.52;2.00;;;;;;;13.18;62.38;101126.42;2319576;84;25693;-77
2021/12/16 14:46:10;;;;;;;2.45;2.17;;;;;;;13.09;62.53;101118.75;2319287;83;25892;-77
2021/12/16 14:49:35;;;;;;;1.87;1.25;;;;;;;13.07;62.59;101117.42;2319454;83;25583;-76
2021/12/16 14:52:58;;;;;;;2.85;2.02;;;;;;;13.04;62.61;101118.66;2319178;83;25402;-81
2021/12/16 14:56:26;;;;;;;2.45;1.77;;;;;;;13.02;62.62;101122.95;2319330;83;25718;-80
2021/12/16 14:59:47;;;;;;;5.37;2.47;;;;;;;13.00;62.63;101123.35;2318890;83;25828;-79
2021/12/16 15:03:29;;;;;;;1.60;1.37;;;;;;;12.96;62.64;101121.08;2319031;85;31361;-77
2021/12/16 15:06:58;;;;;;;3.10;2.02;;;;;;;12.95;62.64;101090.50;2319314;84;25621;-82
2021/12/16 15:10:17;;;;;;;1.90;1.70;;;;;;;12.94;62.64;101086.12;2340745;83;25737;-86
2021/12/16 15:13:45;;;;;;;2.77;1.47;;;;;;;13.04;62.33;101087.66;2407573;82;25689;-77
2021/12/16 15:17:13;;;;;;;1.95;1.60;;;;;;;13.06;62.26;101101.66;2406454;82;25664;-86
2021/12/16 15:42:51;;;;;;;2.87;1.82;;;;;;;12.89;62.41;101102.54;2465240;80;25640;-79
2021/12/16 15:46:09;;;;;;;2.17;1.27;;;;;;;12.85;62.41;101103.31;2466026;80;25691;-79
2021/12/16 15:49:34;;;;;;;1.95;1.50;;;;;;;12.81;62.42;101115.44;2435428;80;30824;-76
2021/12/16 15:52:57;;;;;;;2.45;1.17;;;;;;;12.78;62.45;101131.48;2466873;80;26017;-84
2021/12/16 15:56:26;;;;;;;2.02;1.52;;;;;;;12.75;62.47;101142.31;2467066;80;25751;-79
2021/12/16 15:59:53;;;;;;;2.10;1.45;;;;;;;12.73;62.50;101141.83;2457433;80;25605;-77
2021/12/16 16:03:17;;;;;;;1.77;1.40;;;;;;;12.72;62.53;101157.96;2466606;80;25720;-78
2021/12/16 16:06:47;;;;;;;3.45;1.52;;;;;;;12.69;62.55;101140.87;2463066;78;25643;-88
2021/12/16 16:10:15;;;;;;;2.15;1.37;;;;;;;12.68;62.53;101157.39;2466783;80;25697;-80
2021/12/16 16:13:47;;;;;;;6.10;2.65;;;;;;;12.67;62.53;101159.97;2466649;80;25572;-85
2021/12/16 16:17:14;;;;;;;2.75;2.17;;;;;;;12.75;64.38;101153.20;2466451;80;25734;-86
2021/12/16 16:20:33;;;;;;;3.22;2.12;;;;;;;12.87;63.95;101153.97;2465356;80;25695;-78
2021/12/16 16:24:16;;;;;;;4.62;2.12;;;;;;;12.83;63.66;101163.48;2467049;80;25635;-83
2021/12/16 16:27:38;;;;;;;9.30;2.17;;;;;;;12.79;63.56;101157.70;2466960;80;25838;-80
2021/12/16 16:31:00;;;;;;;3.02;1.80;;;;;;;12.72;63.43;101178.89;2466734;78;25634;-83
2021/12/16 16:34:29;;;;;;;5.15;2.25;;;;;;;12.67;63.34;101176.55;2455523;80;26144;-80
2021/12/16 16:37:49;;;;;;;4.62;2.33;;;;;;;12.63;63.21;101179.94;2455710;80;25649;-78
2021/12/16 16:41:15;;;;;;;2.72;1.80;;;;;;;12.59;63.15;101175.47;2455473;80;30890;-83
2021/12/16 16:44:37;;;;;;;3.05;1.95;;;;;;;12.54;63.09;101182.28;2455390;80;25703;-78
2021/12/16 16:48:14;;;;;;;3.77;1.77;;;;;;;12.50;62.98;101171.28;2455371;80;25648;-81
2021/12/16 16:51:47;;;;;;;3.25;2.10;;;;;;;12.45;62.90;101159.39;2450319;80;25556;-82
2021/12/16 16:55:19;;;;;;;3.47;1.95;;;;;;;12.42;62.82;101160.61;2455169;80;26316;-81
2021/12/16 16:58:41;;;;;;;2.80;1.77;;;;;;;12.38;62.74;101160.03;2455515;80;25737;-89
2021/12/16 17:02:28;;;;;;;2.42;1.60;;;;;;;12.35;62.71;101155.13;2454950;80;25676;-83
2021/12/16 17:05:57;;;;;;;3.08;1.40;;;;;;;12.30;62.66;101152.40;2455634;80;25603;-84
2021/12/16 17:09:18;;;;;;;3.72;1.75;;;;;;;12.26;62.61;101157.96;2455136;80;25801;-84
2021/12/16 17:12:39;;;;;;;7.45;2.20;;;;;;;12.23;62.50;101159.60;2457840;79;25994;-84
2021/12/16 17:19:24;;;;;;;3.25;2.10;;;;;;;12.15;62.42;101158.08;2470658;79;26264;-84
2021/12/16 17:22:49;;;;;;;3.77;2.08;;;;;;;12.13;62.37;101169.32;2426594;80;25214;-83
2021/12/16 17:26:33;;;;;;;4.83;1.90;;;;;;;12.11;62.34;101174.91;2459552;79;25667;-80
2021/12/16 17:30:02;;;;;;;3.00;1.90;;;;;;;12.09;62.35;101177.92;2453523;79;25657;-83
2021/12/16 17:33:29;;;;;;;3.58;1.80;;;;;;;12.05;62.34;101177.83;2421385;79;25859;-84
2021/12/16 17:36:59;;;;;;;4.90;2.10;;;;;;;12.04;62.38;101182.56;2413039;81;25783;-87
2021/12/16 17:40:26;;;;;;;4.15;1.77;;;;;;;12.04;62.37;101185.60;2439048;78;25716;-82
2021/12/16 17:43:47;;;;;;;5.65;2.05;;;;;;;12.03;62.73;101188.64;2433663;80;25704;-79
2021/12/16 17:47:13;;;;;;;3.47;2.33;;;;;;;12.09;62.70;101187.06;2433721;80;30893;-81
2021/12/16 17:50:43;;;;;;;3.25;1.85;;;;;;;12.06;62.65;101180.02;2433679;81;25665;-83
2021/12/16 17:54:07;;;;;;;3.17;1.82;;;;;;;12.08;62.65;101178.73;2429209;80;25523;-80
2021/12/16 17:57:40;;;;;;;3.87;2.00;;;;;;;12.06;62.69;101185.23;2403823;80;26395;-82
2021/12/16 18:01:27;;;;;;;3.17;2.12;;;;;;;12.05;62.71;101173.91;2439909;80;25476;-78
2021/12/16 18:04:53;;;;;;;7.40;2.40;;;;;;;12.05;62.72;101175.64;2454514;80;25772;-80
2021/12/16 18:08:34;;;;;;;4.70;2.15;;;;;;;12.06;62.70;101183.94;2433154;80;25203;-80
2021/12/16 18:12:16;;;;;;;5.00;2.47;;;;;;;12.09;62.95;101175.30;2397263;82;25669;-82
2021/12/16 18:15:39;;;;;;;7.78;2.70;;;;;;;12.13;62.96;101156.25;2398659;81;25681;-83
2021/12/16 18:19:08;;;;;;;5.62;3.60;;;;;;;12.11;62.90;101142.23;2398586;82;25668;-82
2021/12/16 18:22:37;;;;;;;2.60;2.02;;;;;;;12.10;62.88;101162.27;2398180;82;25691;-80
2021/12/16 18:26:03;;;;;;;4.10;2.45;;;;;;;12.10;62.89;101157.47;2398130;81;25938;-84
2021/12/16 18:29:24;;;;;;;4.25;1.92;;;;;;;12.09;62.87;101164.85;2398506;82;25932;-80
2021/12/16 18:32:51;;;;;;;3.02;2.00;;;;;;;12.09;63.15;101171.39;2397972;81;25755;-83
2021/12/16 18:36:31;;;;;;;3.27;2.10;;;;;;;12.12;63.07;101174.09;2397270;82;25673;-83
2021/12/16 18:39:51;;;;;;;5.72;2.67;;;;;;;12.13;63.02;101177.16;2428096;78;25715;-83
2021/12/16 18:43:15;;;;;;;3.50;2.42;;;;;;;12.12;63.01;101183.24;2434839;81;25652;-81
2021/12/16 18:46:37;;;;;;;4.15;2.62;;;;;;;12.10;63.01;101172.72;2418793;81;25778;-82
2021/12/16 18:50:12;;;;;;;4.80;2.77;;;;;;;12.09;62.97;101181.84;2435024;80;25632;-81
2021/12/16 18:57:21;;;;;;;5.35;2.77;;;;;;;12.06;62.95;101177.40;2412895;81;25653;-83
2021/12/16 19:00:50;;;;;;;7.28;3.40;;;;;;;12.28;64.01;101178.91;2427759;80;26285;-83
2021/12/16 19:04:15;;;;;;;6.70;2.77;;;;;;;12.36;63.45;101183.96;2430134;80;25699;-83
2021/12/16 19:07:38;;;;;;;5.50;2.77;;;;;;;12.30;63.24;101181.16;2455843;80;25693;-83
2021/12/16 19:10:59;;;;;;;4.53;2.55;;;;;;;12.26;63.17;101177.99;2454716;80;25666;-83
2021/12/16 19:14:25;;;;;;;4.97;2.62;;;;;;;12.22;63.10;101186.59;2455938;80;25549;-82
2021/12/16 19:17:49;;;;;;;4.65;2.98;;;;;;;12.20;63.04;101186.96;2454848;79;25703;-83
2021/12/16 19:21:13;;;;;;;4.05;2.27;;;;;;;12.17;62.98;101183.83;2457344;79;25687;-83
2021/12/16 19:24:36;;;;;;;15.08;3.42;;;;;;;12.26;64.22;101178.88;2449697;80;25745;-82
2021/12/16 19:27:57;;;;;;;4.10;2.75;;;;;;;12.44;63.58;101184.17;2452624;80;25890;-81
2021/12/16 19:31:20;;;;;;;5.60;2.72;;;;;;;12.44;63.33;101186.78;2453543;80;25775;-82
2021/12/16 19:34:46;;;;;;;6.17;2.80;;;;;;;12.40;63.24;101196.70;2453715;79;25667;-82
2021/12/16 19:38:20;;;;;;;;;;;;;;;;;;;;;
2021/12/16 19:41:38;;;;;;;4.30;2.27;;;;;;;12.32;63.08;101209.56;2380499;82;25759;-80
2021/12/16 19:45:00;;;;;;;9.00;3.25;;;;;;;12.27;63.03;101209.83;2412097;82;25616;-79